createdAt,value
2023-01-31T00:00:35.251Z,11.65
2023-01-31T00:01:33.091Z,12.09
2023-01-31T00:02:24.677Z,11.24
2023-01-31T00:03:16.462Z,11.15
2023-01-31T00:04:11.793Z,10.97
2023-01-31T00:05:03.654Z,11.56
2023-01-31T00:05:55.388Z,11.80
2023-01-31T00:06:51.970Z,13.91
2023-01-31T00:07:43.464Z,12.60
2023-01-31T00:08:35.083Z,12.30
2023-01-31T00:09:26.516Z,10.48
2023-01-31T00:10:18.040Z,9.50
2023-01-31T00:11:10.793Z,10.37
2023-01-31T00:12:02.187Z,9.85
2023-01-31T00:12:53.786Z,10.78
2023-01-31T00:13:46.875Z,11.50
2023-01-31T00:14:39.129Z,11.64
2023-01-31T00:15:30.620Z,12.08
2023-01-31T00:16:24.060Z,12.24
2023-01-31T00:17:15.728Z,12.92
2023-01-31T00:18:10.423Z,13.25
2023-01-31T00:19:02.719Z,10.12
2023-01-31T00:19:54.193Z,10.21
2023-01-31T00:20:45.616Z,10.49
2023-01-31T00:21:37.433Z,10.24
2023-01-31T00:22:29.097Z,9.59
2023-01-31T00:23:20.562Z,10.61
2023-01-31T00:24:13.890Z,10.84
2023-01-31T00:25:06.290Z,10.78
2023-01-31T00:26:14.480Z,10.86
2023-01-31T00:27:06.296Z,12.28
2023-01-31T00:27:58.567Z,12.01
2023-01-31T00:28:52.328Z,10.51
2023-01-31T00:29:43.803Z,10.89
2023-01-31T00:30:35.817Z,10.40
2023-01-31T00:31:29.851Z,9.97
2023-01-31T00:32:21.461Z,10.58
2023-01-31T00:33:15.448Z,10.39
2023-01-31T00:34:07.353Z,10.70
2023-01-31T00:34:59.689Z,10.05
2023-01-31T00:35:51.405Z,10.47
2023-01-31T00:36:43.103Z,10.74
2023-01-31T00:37:34.761Z,11.01
2023-01-31T00:38:26.194Z,10.91
2023-01-31T00:39:17.720Z,10.35
2023-01-31T00:40:10.720Z,11.20
2023-01-31T00:41:04.264Z,11.50
2023-01-31T00:41:57.977Z,10.30
2023-01-31T00:42:49.434Z,9.99
2023-01-31T00:43:40.961Z,9.89
2023-01-31T00:44:35.335Z,10.08
2023-01-31T00:45:27.149Z,10.64
2023-01-31T00:46:22.338Z,11.40
2023-01-31T00:47:14.322Z,10.43
2023-01-31T00:48:05.771Z,9.64
2023-01-31T00:48:57.393Z,9.71
2023-01-31T00:49:48.827Z,9.91
2023-01-31T00:50:40.413Z,11.47
2023-01-31T00:51:32.066Z,10.95
2023-01-31T00:52:23.552Z,10.50
2023-01-31T00:53:15.591Z,10.45
2023-01-31T00:54:07.292Z,10.03
2023-01-31T00:54:58.753Z,10.05
2023-01-31T00:55:52.059Z,10.46
2023-01-31T00:56:44.684Z,11.06
2023-01-31T00:57:36.650Z,10.82
2023-01-31T00:58:28.754Z,12.72
2023-01-31T00:59:21.148Z,10.20
2023-01-31T01:00:13.399Z,8.55
2023-01-31T01:01:22.193Z,8.51
2023-01-31T01:02:15.458Z,9.71
2023-01-31T01:03:07.127Z,8.56
2023-01-31T01:03:58.662Z,10.17
2023-01-31T01:04:50.198Z,9.87
2023-01-31T01:05:42.405Z,9.30
2023-01-31T01:06:34.647Z,8.61
2023-01-31T01:07:26.768Z,9.46
2023-01-31T01:08:18.771Z,9.50
2023-01-31T01:09:10.778Z,9.50
2023-01-31T01:10:03.072Z,8.53
2023-01-31T01:10:55.085Z,9.04
2023-01-31T01:11:46.898Z,9.26
2023-01-31T01:12:39.414Z,9.40
2023-01-31T01:13:30.866Z,10.59
2023-01-31T01:14:22.795Z,10.85
2023-01-31T01:15:15.032Z,10.56
2023-01-31T01:16:14.014Z,10.77
2023-01-31T01:17:05.533Z,9.48
2023-01-31T01:17:59.352Z,9.37
2023-01-31T01:18:54.792Z,9.57
2023-01-31T01:19:46.343Z,9.79
2023-01-31T01:20:38.023Z,10.23
2023-01-31T01:21:32.347Z,10.39
2023-01-31T01:22:25.057Z,8.24
2023-01-31T01:23:16.469Z,7.97
2023-01-31T01:24:13.956Z,8.46
2023-01-31T01:25:06.305Z,9.32
2023-01-31T01:25:57.740Z,8.96
2023-01-31T01:26:49.364Z,9.03
2023-01-31T01:27:40.916Z,9.74
2023-01-31T01:28:35.574Z,10.04
2023-01-31T01:29:27.531Z,10.18
2023-01-31T01:30:20.261Z,10.07
2023-01-31T01:31:14.323Z,10.55
2023-01-31T01:32:07.181Z,10.41
2023-01-31T01:32:58.713Z,10.77
2023-01-31T01:33:50.322Z,9.84
2023-01-31T01:34:41.968Z,10.66
2023-01-31T01:35:34.038Z,10.31
2023-01-31T01:36:26.625Z,10.67
2023-01-31T01:37:21.312Z,10.24
2023-01-31T01:38:12.856Z,9.93
2023-01-31T01:39:07.424Z,10.54
2023-01-31T01:39:59.250Z,9.81
2023-01-31T01:40:50.919Z,10.82
2023-01-31T01:41:42.886Z,8.86
2023-01-31T01:42:36.310Z,8.38
2023-01-31T01:43:47.408Z,8.94
2023-01-31T01:44:52.996Z,9.63
2023-01-31T01:45:45.352Z,10.02
2023-01-31T01:46:43.855Z,10.09
2023-01-31T01:47:56.660Z,9.73
2023-01-31T01:48:56.187Z,8.64
2023-01-31T01:49:54.789Z,10.14
2023-01-31T01:50:49.375Z,9.18
2023-01-31T01:51:43.399Z,9.35
2023-01-31T01:52:59.599Z,8.15
2023-01-31T01:53:59.407Z,8.42
2023-01-31T01:55:00.727Z,8.67
2023-01-31T01:55:57.772Z,9.29
2023-01-31T01:56:56.656Z,9.78
2023-01-31T01:57:54.513Z,9.43
2023-01-31T01:58:56.624Z,10.23
2023-01-31T02:00:01.381Z,9.44
2023-01-31T02:00:54.162Z,9.87
2023-01-31T02:01:49.868Z,8.89
2023-01-31T02:02:45.635Z,9.39
2023-01-31T02:03:38.885Z,8.82
2023-01-31T02:04:37.837Z,9.61
2023-01-31T02:05:35.254Z,9.87
2023-01-31T02:06:26.915Z,10.49
2023-01-31T02:07:19.548Z,10.14
2023-01-31T02:08:14.161Z,10.36
2023-01-31T02:09:20.235Z,9.65
2023-01-31T02:10:26.868Z,9.78
2023-01-31T02:11:31.105Z,8.60
2023-01-31T02:12:24.045Z,9.22
2023-01-31T02:13:17.599Z,8.65
2023-01-31T02:14:12.563Z,9.35
2023-01-31T02:15:05.187Z,9.75
2023-01-31T02:15:57.823Z,10.31
2023-01-31T02:16:49.531Z,11.06
2023-01-31T02:17:42.206Z,10.11
2023-01-31T02:18:34.019Z,10.76
2023-01-31T02:19:47.161Z,9.36
2023-01-31T02:21:38.427Z,9.00
2023-01-31T02:22:59.719Z,8.89
2023-01-31T02:23:54.096Z,9.05
2023-01-31T02:25:11.691Z,7.49
2023-01-31T02:26:30.867Z,7.80
2023-01-31T02:27:55.497Z,8.95
2023-01-31T02:29:17.819Z,8.11
2023-01-31T02:30:36.979Z,7.74
2023-01-31T02:31:56.286Z,8.79
2023-01-31T02:32:51.590Z,8.33
2023-01-31T02:33:54.173Z,8.31
2023-01-31T02:34:45.769Z,8.57
2023-01-31T02:36:27.461Z,7.76
2023-01-31T02:37:30.591Z,7.52
2023-01-31T02:38:56.118Z,7.52
2023-01-31T02:40:10.153Z,8.34
2023-01-31T02:41:15.830Z,8.73
2023-01-31T02:42:39.578Z,8.92
2023-01-31T02:44:05.273Z,8.92
2023-01-31T02:45:20.661Z,9.24
2023-01-31T02:46:18.265Z,8.87
2023-01-31T02:47:48.794Z,9.75
2023-01-31T02:48:55.734Z,9.50
2023-01-31T02:50:11.168Z,8.59
2023-01-31T02:51:29.880Z,9.77
2023-01-31T02:52:40.254Z,9.49
2023-01-31T02:53:45.561Z,8.15
2023-01-31T02:54:57.286Z,7.98
2023-01-31T02:56:14.886Z,8.80
2023-01-31T02:57:06.822Z,9.21
2023-01-31T02:58:02.945Z,9.97
2023-01-31T02:59:22.132Z,9.53
2023-01-31T03:00:17.519Z,9.29
2023-01-31T03:01:17.539Z,9.33
2023-01-31T03:02:11.388Z,8.90
2023-01-31T03:03:27.870Z,9.30
2023-01-31T03:04:19.344Z,8.48
2023-01-31T03:05:15.714Z,9.61
2023-01-31T03:06:23.037Z,9.73
2023-01-31T03:07:22.203Z,9.29
2023-01-31T03:08:16.253Z,9.44
2023-01-31T03:09:36.606Z,9.33
2023-01-31T03:10:31.647Z,9.27
2023-01-31T03:11:33.755Z,8.89
2023-01-31T03:12:51.941Z,9.26
2023-01-31T03:14:03.084Z,8.79
2023-01-31T03:15:19.744Z,7.83
2023-01-31T03:16:41.936Z,8.23
2023-01-31T03:18:08.868Z,8.69
2023-01-31T03:19:17.535Z,9.63
2023-01-31T03:20:24.958Z,9.14
2023-01-31T03:21:24.154Z,9.29
2023-01-31T03:22:26.458Z,9.65
2023-01-31T03:23:23.911Z,9.09
2023-01-31T03:24:19.089Z,8.45
2023-01-31T03:25:15.197Z,8.49
2023-01-31T03:26:10.517Z,9.30
2023-01-31T03:27:04.839Z,10.55
2023-01-31T03:28:03.633Z,10.56
2023-01-31T03:29:00.901Z,10.72
2023-01-31T03:30:01.307Z,9.61
2023-01-31T03:31:04.639Z,9.43
2023-01-31T03:32:24.784Z,9.03
2023-01-31T03:33:26.904Z,10.17
2023-01-31T03:34:19.763Z,8.79
2023-01-31T03:35:12.632Z,9.05
2023-01-31T03:36:33.278Z,7.75
2023-01-31T03:37:44.218Z,8.80
2023-01-31T03:39:13.701Z,8.48
2023-01-31T03:40:13.128Z,9.14
2023-01-31T03:41:12.760Z,8.79
2023-01-31T03:42:09.442Z,9.33
2023-01-31T03:43:11.263Z,8.96
2023-01-31T03:44:14.565Z,9.20
2023-01-31T03:45:29.288Z,9.53
2023-01-31T03:46:30.618Z,9.15
2023-01-31T03:47:27.870Z,8.76
2023-01-31T03:48:27.004Z,9.54
2023-01-31T03:49:23.648Z,9.56
2023-01-31T03:50:50.863Z,11.14
2023-01-31T03:51:50.666Z,9.19
2023-01-31T03:53:10.390Z,10.73
2023-01-31T03:54:07.945Z,8.65
2023-01-31T03:55:08.194Z,8.77
2023-01-31T03:56:13.379Z,8.62
2023-01-31T03:57:18.997Z,7.87
2023-01-31T03:58:14.680Z,7.79
2023-01-31T03:59:15.487Z,8.08
2023-01-31T04:00:12.871Z,8.18
2023-01-31T04:01:12.892Z,8.76
2023-01-31T04:02:10.802Z,9.67
2023-01-31T04:03:14.954Z,9.14
2023-01-31T04:04:20.951Z,8.35
2023-01-31T04:05:19.471Z,9.06
2023-01-31T04:06:14.541Z,8.75
2023-01-31T04:07:06.864Z,9.23
2023-01-31T04:08:02.445Z,7.94
2023-01-31T04:08:56.104Z,8.95
2023-01-31T04:09:47.787Z,10.32
2023-01-31T04:10:39.844Z,10.03
2023-01-31T04:11:39.155Z,9.26
2023-01-31T04:12:36.116Z,9.01
2023-01-31T04:13:27.715Z,8.54
2023-01-31T04:14:20.303Z,7.44
2023-01-31T04:15:12.808Z,7.80
2023-01-31T04:16:04.845Z,8.00
2023-01-31T04:16:56.397Z,8.12
2023-01-31T04:17:47.991Z,8.84
2023-01-31T04:18:39.638Z,8.81
2023-01-31T04:19:31.342Z,8.45
2023-01-31T04:20:22.858Z,9.09
2023-01-31T04:21:15.277Z,7.73
2023-01-31T04:22:06.973Z,7.65
2023-01-31T04:22:59.845Z,8.79
2023-01-31T04:23:52.281Z,8.49
2023-01-31T04:24:43.720Z,9.30
2023-01-31T04:25:35.146Z,9.16
2023-01-31T04:26:28.032Z,8.66
2023-01-31T04:27:19.580Z,9.54
2023-01-31T04:28:11.268Z,9.08
2023-01-31T04:29:03.407Z,9.47
2023-01-31T04:29:54.838Z,9.08
2023-01-31T04:30:46.413Z,9.39
2023-01-31T04:31:38.031Z,9.32
2023-01-31T04:32:29.490Z,9.05
2023-01-31T04:33:21.798Z,9.04
2023-01-31T04:34:13.454Z,8.71
2023-01-31T04:35:05.314Z,8.95
2023-01-31T04:35:57.207Z,9.10
2023-01-31T04:36:48.681Z,8.52
2023-01-31T04:37:40.177Z,9.23
2023-01-31T04:38:31.929Z,8.48
2023-01-31T04:39:23.775Z,8.59
2023-01-31T04:40:15.491Z,8.25
2023-01-31T04:41:06.932Z,8.58
2023-01-31T04:41:58.372Z,8.43
2023-01-31T04:42:50.621Z,8.48
2023-01-31T04:43:42.349Z,8.33
2023-01-31T04:44:33.918Z,8.55
2023-01-31T04:45:25.600Z,8.84
2023-01-31T04:46:17.468Z,9.15
2023-01-31T04:47:09.391Z,9.42
2023-01-31T04:48:00.830Z,9.70
2023-01-31T04:48:52.516Z,9.23
2023-01-31T04:49:44.302Z,8.47
2023-01-31T04:50:35.802Z,9.09
2023-01-31T04:51:27.309Z,8.60
2023-01-31T04:52:18.945Z,7.90
2023-01-31T04:53:11.033Z,8.16
2023-01-31T04:54:02.633Z,7.68
2023-01-31T04:54:56.209Z,8.00
2023-01-31T04:55:48.019Z,8.39
2023-01-31T04:56:39.464Z,8.89
2023-01-31T04:57:31.612Z,9.75
2023-01-31T04:58:24.973Z,8.75
2023-01-31T04:59:16.542Z,8.88
2023-01-31T05:00:09.032Z,9.27
2023-01-31T05:01:15.933Z,8.69
2023-01-31T05:02:08.401Z,8.30
2023-01-31T05:03:01.117Z,7.53
2023-01-31T05:03:52.681Z,7.62
2023-01-31T05:04:44.590Z,8.72
2023-01-31T05:05:36.803Z,7.86
2023-01-31T05:06:28.823Z,7.60
2023-01-31T05:07:21.287Z,7.52
2023-01-31T05:08:12.739Z,8.11
2023-01-31T05:09:04.259Z,7.74
2023-01-31T05:09:55.799Z,8.59
2023-01-31T05:10:48.227Z,7.67
2023-01-31T05:11:40.065Z,8.35
2023-01-31T05:12:31.670Z,6.85
2023-01-31T05:13:24.110Z,7.38
2023-01-31T05:14:15.543Z,8.33
2023-01-31T05:15:07.677Z,8.47
2023-01-31T05:15:59.391Z,7.33
2023-01-31T05:16:50.870Z,7.98
2023-01-31T05:17:42.316Z,7.20
2023-01-31T05:18:35.318Z,6.38
2023-01-31T05:19:26.939Z,7.18
2023-01-31T05:20:18.717Z,7.39
2023-01-31T05:21:10.922Z,7.87
2023-01-31T05:22:02.590Z,7.96
2023-01-31T05:22:54.139Z,7.65
2023-01-31T05:23:45.823Z,7.49
2023-01-31T05:24:37.344Z,7.92
2023-01-31T05:25:29.041Z,8.74
2023-01-31T05:26:20.592Z,7.87
2023-01-31T05:27:12.022Z,7.55
2023-01-31T05:28:05.125Z,7.46
2023-01-31T05:28:56.999Z,7.59
2023-01-31T05:29:48.711Z,8.55
2023-01-31T05:30:40.332Z,8.30
2023-01-31T05:31:32.582Z,8.66
2023-01-31T05:32:24.216Z,7.58
2023-01-31T05:33:15.709Z,7.31
2023-01-31T05:34:07.324Z,6.79
2023-01-31T05:34:58.748Z,7.70
2023-01-31T05:35:50.231Z,7.94
2023-01-31T05:36:42.958Z,8.11
2023-01-31T05:37:34.361Z,7.75
2023-01-31T05:38:25.948Z,7.13
2023-01-31T05:39:18.007Z,7.90
2023-01-31T05:40:16.250Z,8.50
2023-01-31T05:41:07.869Z,8.36
2023-01-31T05:41:59.610Z,7.91
2023-01-31T05:43:02.260Z,6.75
2023-01-31T05:43:53.698Z,6.47
2023-01-31T05:44:45.308Z,6.34
2023-01-31T05:45:36.816Z,6.57
2023-01-31T05:46:28.301Z,6.79
2023-01-31T05:47:20.073Z,6.61
2023-01-31T05:48:12.031Z,6.81
2023-01-31T05:49:04.061Z,6.68
2023-01-31T05:49:55.523Z,6.29
2023-01-31T05:50:49.904Z,6.42
2023-01-31T05:51:42.013Z,7.68
2023-01-31T05:52:33.503Z,7.24
2023-01-31T05:53:25.129Z,7.06
2023-01-31T05:54:16.746Z,6.77
2023-01-31T05:55:08.865Z,7.07
2023-01-31T05:56:00.434Z,7.04
2023-01-31T05:56:52.067Z,7.55
2023-01-31T05:57:43.629Z,7.53
2023-01-31T05:58:35.279Z,7.46
2023-01-31T05:59:26.947Z,7.37
2023-01-31T06:00:19.434Z,7.11
2023-01-31T06:01:10.995Z,7.15
2023-01-31T06:02:02.534Z,8.47
2023-01-31T06:02:58.436Z,9.02
2023-01-31T06:03:50.501Z,8.07
2023-01-31T06:04:42.315Z,8.40
2023-01-31T06:05:33.991Z,8.23
2023-01-31T06:06:25.560Z,9.00
2023-01-31T06:07:17.009Z,8.93
2023-01-31T06:08:08.480Z,9.99
2023-01-31T06:09:00.247Z,10.08
2023-01-31T06:09:51.692Z,10.24
2023-01-31T06:10:43.468Z,10.66
2023-01-31T06:11:34.967Z,9.03
2023-01-31T06:12:26.496Z,8.97
2023-01-31T06:13:17.996Z,8.69
2023-01-31T06:14:09.446Z,8.68
2023-01-31T06:15:01.080Z,9.50
2023-01-31T06:15:52.684Z,9.59
2023-01-31T06:16:44.420Z,8.73
2023-01-31T06:17:36.494Z,8.22
2023-01-31T06:18:28.197Z,8.28
2023-01-31T06:19:21.470Z,8.50
2023-01-31T06:20:13.531Z,8.66
2023-01-31T06:21:05.248Z,8.15
2023-01-31T06:21:56.723Z,8.36
2023-01-31T06:22:48.214Z,8.33
2023-01-31T06:23:40.485Z,7.95
2023-01-31T06:24:34.079Z,7.99
2023-01-31T06:25:25.700Z,8.46
2023-01-31T06:26:17.317Z,7.88
2023-01-31T06:27:08.771Z,8.61
2023-01-31T06:28:00.514Z,9.30
2023-01-31T06:28:52.258Z,9.75
2023-01-31T06:29:43.769Z,9.41
2023-01-31T06:30:36.953Z,9.19
2023-01-31T06:31:28.888Z,7.71
2023-01-31T06:32:20.612Z,9.11
2023-01-31T06:33:12.819Z,9.11
2023-01-31T06:34:04.484Z,8.34
2023-01-31T06:34:56.245Z,9.09
2023-01-31T06:35:47.944Z,8.23
2023-01-31T06:36:39.463Z,8.93
2023-01-31T06:37:30.915Z,8.83
2023-01-31T06:38:22.463Z,8.57
2023-01-31T06:39:14.720Z,8.50
2023-01-31T06:40:06.642Z,8.43
2023-01-31T06:40:58.161Z,9.46
2023-01-31T06:41:49.641Z,9.34
2023-01-31T06:42:41.260Z,9.31
2023-01-31T06:43:32.864Z,9.48
2023-01-31T06:44:26.470Z,9.02
2023-01-31T06:45:18.470Z,8.72
2023-01-31T06:46:10.529Z,8.75
2023-01-31T06:47:02.018Z,9.22
2023-01-31T06:47:53.590Z,10.37
2023-01-31T06:48:45.249Z,9.70
2023-01-31T06:49:36.746Z,8.91
2023-01-31T06:50:28.206Z,8.49
2023-01-31T06:51:20.826Z,9.33
2023-01-31T06:52:14.161Z,8.89
2023-01-31T06:53:06.932Z,9.03
2023-01-31T06:53:58.390Z,8.81
2023-01-31T06:54:49.879Z,9.89
2023-01-31T06:55:41.325Z,9.99
2023-01-31T06:56:32.957Z,9.61
2023-01-31T06:57:24.391Z,9.00
2023-01-31T06:58:15.887Z,9.83
2023-01-31T06:59:07.532Z,9.81
2023-01-31T06:59:59.238Z,10.13
2023-01-31T07:00:50.693Z,9.40
2023-01-31T07:01:42.270Z,9.40
2023-01-31T07:02:33.923Z,9.45
2023-01-31T07:03:25.501Z,9.19
2023-01-31T07:04:16.932Z,8.44
2023-01-31T07:05:08.528Z,8.65
2023-01-31T07:06:00.111Z,9.64
2023-01-31T07:06:51.947Z,9.34
2023-01-31T07:07:43.729Z,9.43
2023-01-31T07:08:36.363Z,8.27
2023-01-31T07:09:27.873Z,7.94
2023-01-31T07:10:19.500Z,9.28
2023-01-31T07:11:11.142Z,9.88
2023-01-31T07:12:02.869Z,9.35
2023-01-31T07:12:54.405Z,8.77
2023-01-31T07:13:47.965Z,8.73
2023-01-31T07:14:39.474Z,8.58
2023-01-31T07:15:31.283Z,8.76
2023-01-31T07:16:25.386Z,8.43
2023-01-31T07:17:17.818Z,8.34
2023-01-31T07:18:09.392Z,8.69
2023-01-31T07:19:00.883Z,8.01
2023-01-31T07:19:52.625Z,8.16
2023-01-31T07:20:44.151Z,7.81
2023-01-31T07:21:36.856Z,8.17
2023-01-31T07:22:28.286Z,7.87
2023-01-31T07:23:19.764Z,7.71
2023-01-31T07:24:11.549Z,7.31
2023-01-31T07:25:03.258Z,8.04
2023-01-31T07:25:54.919Z,7.91
2023-01-31T07:26:46.455Z,8.52
2023-01-31T07:27:38.094Z,7.96
2023-01-31T07:28:29.973Z,8.26
2023-01-31T07:29:21.411Z,8.84
2023-01-31T07:30:13.332Z,8.76
2023-01-31T07:31:11.787Z,8.68
2023-01-31T07:32:03.507Z,8.52
2023-01-31T07:32:55.039Z,8.40
2023-01-31T07:33:46.745Z,9.25
2023-01-31T07:34:38.387Z,8.50
2023-01-31T07:35:30.186Z,8.37
2023-01-31T07:36:26.343Z,8.15
2023-01-31T07:37:17.946Z,8.01
2023-01-31T07:38:11.241Z,7.99
2023-01-31T07:39:03.219Z,7.90
2023-01-31T07:39:54.723Z,7.78
2023-01-31T07:40:46.396Z,7.73
2023-01-31T07:41:40.652Z,8.09
2023-01-31T07:42:32.547Z,8.54
2023-01-31T07:43:24.141Z,8.25
2023-01-31T07:44:16.009Z,8.01
2023-01-31T07:45:22.516Z,8.10
2023-01-31T07:46:15.108Z,7.22
2023-01-31T07:47:06.622Z,7.28
2023-01-31T07:47:59.191Z,7.82
2023-01-31T07:48:50.636Z,8.76
2023-01-31T07:49:42.162Z,8.47
2023-01-31T07:50:33.618Z,7.42
2023-01-31T07:51:25.385Z,7.44
2023-01-31T07:52:16.876Z,8.06
2023-01-31T07:53:08.561Z,7.45
2023-01-31T07:53:59.985Z,7.09
2023-01-31T07:54:51.487Z,6.81
2023-01-31T07:55:47.670Z,7.29
2023-01-31T07:56:39.324Z,7.97
2023-01-31T07:57:32.163Z,7.60
2023-01-31T07:58:23.712Z,6.77
2023-01-31T07:59:16.209Z,6.78
2023-01-31T08:00:28.387Z,6.54
2023-01-31T08:01:41.384Z,7.43
2023-01-31T08:02:51.604Z,7.51
2023-01-31T08:03:43.043Z,8.21
2023-01-31T08:04:35.110Z,7.68
2023-01-31T08:05:26.598Z,7.72
2023-01-31T08:06:19.170Z,7.61
2023-01-31T08:07:11.097Z,9.72
2023-01-31T08:08:10.523Z,9.37
2023-01-31T08:09:02.989Z,11.06
2023-01-31T08:09:54.750Z,10.04
2023-01-31T08:10:47.304Z,10.09
2023-01-31T08:11:38.855Z,10.83
2023-01-31T08:12:30.775Z,11.87
2023-01-31T08:13:22.490Z,8.25
2023-01-31T08:14:14.095Z,6.54
2023-01-31T08:15:06.111Z,5.88
2023-01-31T08:15:57.899Z,5.35
2023-01-31T08:16:49.461Z,5.43
2023-01-31T08:17:41.122Z,6.96
2023-01-31T08:18:33.849Z,8.01
2023-01-31T08:19:26.619Z,7.29
2023-01-31T08:20:19.670Z,6.89
2023-01-31T08:21:12.814Z,6.40
2023-01-31T08:22:05.446Z,6.76
2023-01-31T08:22:59.764Z,6.03
2023-01-31T08:23:51.262Z,6.24
2023-01-31T08:24:42.915Z,6.13
2023-01-31T08:25:34.542Z,6.76
2023-01-31T08:26:26.147Z,6.86
2023-01-31T08:27:18.428Z,6.46
2023-01-31T08:28:10.201Z,6.20
2023-01-31T08:29:01.736Z,6.96
2023-01-31T08:29:53.261Z,6.93
2023-01-31T08:30:50.328Z,6.68
2023-01-31T08:31:49.777Z,6.86
2023-01-31T08:32:42.539Z,6.94
2023-01-31T08:33:33.980Z,6.87
2023-01-31T08:34:27.871Z,6.74
2023-01-31T08:35:19.644Z,6.44
2023-01-31T08:36:24.760Z,6.72
2023-01-31T08:37:17.411Z,7.08
2023-01-31T08:38:16.438Z,6.92
2023-01-31T08:39:08.396Z,6.36
2023-01-31T08:39:59.892Z,6.35
2023-01-31T08:40:51.656Z,6.58
2023-01-31T08:41:43.291Z,6.31
2023-01-31T08:42:35.774Z,6.22
2023-01-31T08:43:27.503Z,6.16
2023-01-31T08:44:19.042Z,6.96
2023-01-31T08:45:10.683Z,7.66
2023-01-31T08:46:02.401Z,8.39
2023-01-31T08:46:53.910Z,7.65
2023-01-31T08:47:45.578Z,5.97
2023-01-31T08:48:39.003Z,5.65
2023-01-31T08:49:30.489Z,5.61
2023-01-31T08:50:27.976Z,5.66
2023-01-31T08:51:19.759Z,5.42
2023-01-31T08:52:11.206Z,7.23
2023-01-31T08:53:04.765Z,7.73
2023-01-31T08:53:56.308Z,7.31
2023-01-31T08:54:48.769Z,7.04
2023-01-31T08:55:40.264Z,7.69
2023-01-31T08:59:01.218Z,6.87
2023-01-31T09:00:36.383Z,6.76
2023-01-31T09:01:42.433Z,7.12
2023-01-31T09:02:55.708Z,7.12
2023-01-31T09:03:48.273Z,7.58
2023-01-31T09:04:40.239Z,7.56
2023-01-31T09:05:32.538Z,7.51
2023-01-31T09:06:27.604Z,6.50
2023-01-31T09:07:21.633Z,6.35
2023-01-31T09:08:13.136Z,6.89
2023-01-31T09:09:04.583Z,7.58
2023-01-31T09:09:56.039Z,7.17
2023-01-31T09:11:02.408Z,7.09
2023-01-31T09:11:55.502Z,7.12
2023-01-31T09:12:51.556Z,7.02
2023-01-31T09:13:43.469Z,6.81
2023-01-31T09:14:34.905Z,7.46
2023-01-31T09:18:02.688Z,7.61
2023-01-31T09:18:28.842Z,7.89
2023-01-31T09:22:46.656Z,6.67
2023-01-31T09:23:42.244Z,6.67
2023-01-31T09:24:37.119Z,7.43
2023-01-31T09:26:08.776Z,7.08
2023-01-31T09:27:28.897Z,6.45
2023-01-31T09:28:26.416Z,7.59
2023-01-31T09:29:17.908Z,7.92
2023-01-31T09:30:11.015Z,7.63
2023-01-31T09:32:05.272Z,6.58
2023-01-31T09:33:02.727Z,7.78
2023-01-31T09:33:54.995Z,7.83
2023-01-31T09:34:49.858Z,6.80
2023-01-31T09:35:41.503Z,7.48
2023-01-31T09:36:33.117Z,7.00
2023-01-31T09:37:24.606Z,7.45
2023-01-31T09:38:56.732Z,7.17
2023-01-31T09:40:23.541Z,7.53
2023-01-31T09:41:21.159Z,8.12
2023-01-31T09:42:15.984Z,7.25
2023-01-31T09:43:12.515Z,7.39
2023-01-31T09:44:05.788Z,7.26
2023-01-31T09:45:14.543Z,7.20
2023-01-31T09:46:14.399Z,7.87
2023-01-31T09:47:08.777Z,9.69
2023-01-31T09:48:57.159Z,10.08
2023-01-31T09:49:59.290Z,8.39
2023-01-31T09:50:56.930Z,7.82
2023-01-31T09:51:58.383Z,7.37
2023-01-31T09:52:50.488Z,8.90
2023-01-31T09:53:43.191Z,5.82
2023-01-31T09:54:39.195Z,6.11
2023-01-31T09:55:37.217Z,5.57
2023-01-31T09:58:51.199Z,7.01
2023-01-31T09:59:54.946Z,7.41
2023-01-31T10:01:06.736Z,7.31
2023-01-31T10:02:10.623Z,7.56
2023-01-31T10:03:40.765Z,6.91
2023-01-31T10:04:54.183Z,7.34
2023-01-31T10:06:11.975Z,7.58
2023-01-31T10:07:08.709Z,7.02
2023-01-31T10:08:25.719Z,7.16
2023-01-31T10:09:37.341Z,6.71
2023-01-31T10:11:03.335Z,6.14
2023-01-31T10:12:01.020Z,7.26
2023-01-31T10:12:59.364Z,7.25
2023-01-31T10:14:01.176Z,7.11
2023-01-31T10:15:02.287Z,6.45
2023-01-31T10:16:18.487Z,6.52
2023-01-31T10:17:49.270Z,6.19
2023-01-31T10:18:47.798Z,8.24
2023-01-31T10:19:55.464Z,8.23
2023-01-31T10:20:53.686Z,8.25
2023-01-31T10:21:55.680Z,7.51
2023-01-31T10:22:59.316Z,7.35
2023-01-31T10:23:59.839Z,7.33
2023-01-31T10:25:38.640Z,6.55
2023-01-31T10:26:53.572Z,6.55
2023-01-31T10:27:52.025Z,6.89
2023-01-31T10:29:21.828Z,7.01
2023-01-31T10:32:41.997Z,7.42
2023-01-31T10:34:05.917Z,8.24
2023-01-31T10:35:07.914Z,8.27
2023-01-31T10:36:10.883Z,7.70
2023-01-31T10:37:25.594Z,7.48
2023-01-31T10:38:31.503Z,7.97
2023-01-31T10:39:30.914Z,7.67
2023-01-31T10:41:25.988Z,6.86
2023-01-31T10:42:44.378Z,7.26
2023-01-31T10:43:50.984Z,6.55
2023-01-31T10:45:08.245Z,6.63
2023-01-31T10:47:14.402Z,6.61
2023-01-31T10:48:17.308Z,6.82
2023-01-31T10:49:11.041Z,6.77
2023-01-31T10:50:16.482Z,7.10
2023-01-31T10:51:29.379Z,7.17
2023-01-31T10:52:36.072Z,7.71
2023-01-31T10:54:12.807Z,6.93
2023-01-31T10:56:35.801Z,6.48
2023-01-31T10:57:27.405Z,5.96
2023-01-31T10:58:22.666Z,6.25
2023-01-31T10:59:36.460Z,6.75
2023-01-31T11:01:22.913Z,6.49
2023-01-31T11:01:58.619Z,7.20
2023-01-31T11:02:50.252Z,6.50
2023-01-31T11:03:49.506Z,6.43
2023-01-31T11:04:43.861Z,6.09
2023-01-31T11:05:48.271Z,7.83
2023-01-31T11:06:46.002Z,8.15
2023-01-31T11:07:37.511Z,8.53
2023-01-31T11:08:49.389Z,8.59
2023-01-31T11:12:23.568Z,10.44
2023-01-31T11:13:40.622Z,8.97
2023-01-31T11:14:32.834Z,9.76
2023-01-31T11:15:29.242Z,10.93
2023-01-31T11:16:23.345Z,10.36
2023-01-31T11:17:18.221Z,9.45
2023-01-31T11:18:25.783Z,10.72
2023-01-31T11:19:25.418Z,10.57
2023-01-31T11:20:34.227Z,8.25
2023-01-31T11:22:01.769Z,6.49
2023-01-31T11:23:04.828Z,6.00
2023-01-31T11:24:14.292Z,6.03
2023-01-31T11:25:07.000Z,5.80
2023-01-31T11:25:59.493Z,6.16
2023-01-31T11:26:55.827Z,5.69
2023-01-31T11:27:49.240Z,4.89
2023-01-31T11:28:41.330Z,5.24
2023-01-31T11:29:46.377Z,5.22
2023-01-31T11:30:48.707Z,5.32
2023-01-31T11:31:45.335Z,5.61
2023-01-31T11:32:37.652Z,5.23
2023-01-31T11:33:46.100Z,5.97
2023-01-31T11:34:37.734Z,5.11
2023-01-31T11:35:32.343Z,5.76
2023-01-31T11:36:25.337Z,5.82
2023-01-31T11:37:29.521Z,5.41
2023-01-31T11:38:26.748Z,6.63
2023-01-31T11:40:52.979Z,5.69
2023-01-31T11:41:44.426Z,5.63
2023-01-31T11:42:55.193Z,5.56
2023-01-31T11:43:46.661Z,6.02
2023-01-31T11:45:00.975Z,5.83
2023-01-31T11:46:03.108Z,7.48
2023-01-31T11:47:05.114Z,7.31
2023-01-31T11:48:16.333Z,6.61
2023-01-31T11:49:17.280Z,7.46
2023-01-31T11:50:21.321Z,6.56
2023-01-31T11:51:30.732Z,6.31
2023-01-31T11:52:30.072Z,6.12
2023-01-31T11:53:39.163Z,7.08
2023-01-31T11:54:34.443Z,7.68
2023-01-31T11:55:35.553Z,7.78
2023-01-31T11:56:36.313Z,7.54
2023-01-31T11:57:35.283Z,6.73
2023-01-31T11:58:37.816Z,7.30
2023-01-31T11:59:31.029Z,6.36
2023-01-31T12:00:25.069Z,6.85
2023-01-31T12:01:21.092Z,6.44
2023-01-31T12:02:36.290Z,6.83
2023-01-31T12:03:29.570Z,6.96
2023-01-31T12:04:32.605Z,6.83
2023-01-31T12:05:35.757Z,6.96
2023-01-31T12:06:29.424Z,7.54
2023-01-31T12:07:25.920Z,6.62
2023-01-31T12:08:35.677Z,6.74
2023-01-31T12:09:31.141Z,6.19
2023-01-31T12:10:42.654Z,5.93
2023-01-31T12:11:36.002Z,5.94
2023-01-31T12:12:35.101Z,6.94
2023-01-31T12:13:29.034Z,7.03
2023-01-31T12:14:20.562Z,6.33
2023-01-31T12:15:15.579Z,6.38
2023-01-31T12:16:07.863Z,6.42
2023-01-31T12:17:01.649Z,5.46
2023-01-31T12:17:54.101Z,5.45
2023-01-31T12:19:13.287Z,6.35
2023-01-31T12:20:26.256Z,5.87
2023-01-31T12:21:34.864Z,5.94
2023-01-31T12:22:39.955Z,6.65
2023-01-31T12:23:50.685Z,7.01
2023-01-31T12:24:52.134Z,6.61
2023-01-31T12:26:02.468Z,5.87
2023-01-31T12:27:14.296Z,5.34
2023-01-31T12:28:23.930Z,5.83
2023-01-31T12:29:43.181Z,8.52
2023-01-31T12:30:52.449Z,6.83
2023-01-31T12:32:18.398Z,5.58
2023-01-31T12:33:48.044Z,5.67
2023-01-31T12:35:00.685Z,5.56
2023-01-31T12:36:35.757Z,5.08
2023-01-31T12:37:36.764Z,4.92
2023-01-31T12:38:39.670Z,4.88
2023-01-31T12:39:43.090Z,5.47
2023-01-31T12:40:44.183Z,5.67
2023-01-31T12:41:41.242Z,5.42
2023-01-31T12:42:38.446Z,5.62
2023-01-31T12:43:44.138Z,6.38
2023-01-31T12:44:47.822Z,5.69
2023-01-31T12:46:07.319Z,5.45
2023-01-31T12:47:23.943Z,5.44
2023-01-31T12:48:36.781Z,4.75
2023-01-31T12:49:55.423Z,5.31
2023-01-31T12:51:04.162Z,5.93
2023-01-31T12:51:59.679Z,5.46
2023-01-31T12:52:54.081Z,5.28
2023-01-31T12:53:45.727Z,5.17
2023-01-31T12:54:51.843Z,5.39
2023-01-31T12:55:49.381Z,5.84
2023-01-31T12:56:49.641Z,6.76
2023-01-31T12:57:46.901Z,6.02
2023-01-31T12:58:50.006Z,5.80
2023-01-31T13:00:03.558Z,5.99
2023-01-31T13:01:05.313Z,6.12
2023-01-31T13:02:37.754Z,5.33
2023-01-31T13:04:04.841Z,6.18